Accueil
METAR-TAF:

METAR-TAF

Aéroports :

Brize Norton, Angleterre

latitude: 51-45N, longitude: 001-35W, altitude: 88 m

Observation

Le bulletin a été fait il y a 1 heure et 4 minutes, à 21:50 UTC
Vent 9 kt de nord/nord-ouest
Température 14°C
Humidité 51%
Pression 1021 hPa
Visibilité 10 km ou plus
Nuages épars à une hauteur de 4500 ft

METAR: EGVN 202150Z 33009KT 9999 SCT045 14/04 Q1021 BLU NOSIG

Heure: 23:54 (22:54 UTC)

Prévision

Le bulletin a été fait il y a 3 heures et 30 minutes, à 19:24 UTC
Prévision valable du 20 à 21 UTC au 21 à 21 UTC
Vent 8 kt de nord/nord-ouest
Visibilité 10 km ou plus
Nuages épars à une hauteur de 3000 ft

TAF: EGVN 201924Z 2021/2121 33008KT 9999 SCT030

Observations et prévisions météorologiques de plus de 4000 aéroports (messages METAR et TAF).

Les stations disponibles sont représentées par des disques jaunes et rouges sur la carte.

Passer la souris dessus pour voir le nom de la station.

Cliquer dessus pour voir les observations et prévisions météorologiques.

Pour changer de carte: cliquez sur les boutons verts avec une croix noire pour zoomer, sur le bouton vert avec un tiret pour effectuer un zoom arrière, ou sur les flèches vertes pour les cartes adjacentes.


METAR-TAF: